createdAt,value
2019-05-14T00:02:02.555Z,66.12
2019-05-14T00:04:33.025Z,66.48
2019-05-14T00:07:05.407Z,66.62
2019-05-14T00:09:36.637Z,67.01
2019-05-14T00:12:08.450Z,66.94
2019-05-14T00:14:43.210Z,67.10
2019-05-14T00:17:12.695Z,66.88
2019-05-14T00:19:44.925Z,66.77
2019-05-14T00:22:16.332Z,66.52
2019-05-14T00:24:47.838Z,66.54
2019-05-14T00:27:21.698Z,65.90
2019-05-14T00:29:54.664Z,65.63
2019-05-14T00:32:26.110Z,66.04
2019-05-14T00:34:57.590Z,66.27
2019-05-14T00:37:29.069Z,65.92
2019-05-14T00:40:01.281Z,65.65
2019-05-14T00:42:44.993Z,65.23
2019-05-14T00:45:17.353Z,65.42
2019-05-14T00:47:48.886Z,65.07
2019-05-14T00:50:22.571Z,64.61
2019-05-14T00:52:54.407Z,64.67
2019-05-14T00:55:26.072Z,64.29
2019-05-14T00:57:57.678Z,63.90
2019-05-14T01:00:31.255Z,64.10
2019-05-14T01:03:02.346Z,63.79
2019-05-14T01:05:33.965Z,63.21
2019-05-14T01:08:05.781Z,63.07
2019-05-14T01:10:37.376Z,62.92
2019-05-14T01:13:11.109Z,62.93
2019-05-14T01:15:43.111Z,63.08
2019-05-14T01:18:14.644Z,63.34
2019-05-14T01:20:46.318Z,63.09
2019-05-14T01:23:17.966Z,63.45
2019-05-14T01:25:51.671Z,63.52
2019-05-14T01:28:23.372Z,63.31
2019-05-14T01:30:54.758Z,62.47
2019-05-14T01:33:26.497Z,62.21
2019-05-14T01:35:58.358Z,62.11
2019-05-14T01:38:31.440Z,61.73
2019-05-14T01:41:03.598Z,61.25
2019-05-14T01:43:35.069Z,60.61
2019-05-14T01:46:07.441Z,59.13
2019-05-14T01:48:38.885Z,58.26
2019-05-14T01:51:12.065Z,57.88
2019-05-14T01:53:43.596Z,56.77
2019-05-14T01:56:15.329Z,56.03
2019-05-14T01:58:48.894Z,56.03
2019-05-14T02:01:21.876Z,55.75
2019-05-14T02:03:53.742Z,55.81
2019-05-14T02:06:25.333Z,55.93
2019-05-14T02:08:56.854Z,55.37
2019-05-14T02:11:28.660Z,55.65
2019-05-14T02:14:02.246Z,55.78
2019-05-14T02:16:34.079Z,55.53
2019-05-14T02:19:05.659Z,55.58
2019-05-14T02:21:36.868Z,55.93
2019-05-14T02:24:11.304Z,56.36
2019-05-14T02:26:47.328Z,55.31
2019-05-14T02:29:18.667Z,55.56
2019-05-14T02:31:50.546Z,55.34
2019-05-14T02:34:22.349Z,55.34
2019-05-14T02:36:53.948Z,55.94
2019-05-14T02:39:28.997Z,56.98
2019-05-14T02:41:59.189Z,57.79
2019-05-14T02:44:31.023Z,57.63
2019-05-14T02:47:02.598Z,57.66
2019-05-14T02:49:39.300Z,57.69
2019-05-14T02:52:10.278Z,58.06
2019-05-14T02:54:42.138Z,57.58
2019-05-14T02:57:15.654Z,58.15
2019-05-14T02:59:50.211Z,57.63
2019-05-14T03:02:20.910Z,57.55
2019-05-14T03:04:52.586Z,56.67
2019-05-14T03:07:24.100Z,57.26
2019-05-14T03:09:59.171Z,57.49
2019-05-14T03:12:30.302Z,57.95
2019-05-14T03:15:14.506Z,57.32
2019-05-14T03:17:49.398Z,57.93
2019-05-14T03:20:21.371Z,58.32
2019-05-14T03:23:03.155Z,58.32
2019-05-14T03:25:25.994Z,58.81
2019-05-14T03:27:59.958Z,58.75
2019-05-14T03:30:32.900Z,58.89
2019-05-14T03:33:04.948Z,58.79
2019-05-14T03:35:44.623Z,59.23
2019-05-14T03:38:10.159Z,59.04
2019-05-14T03:40:41.534Z,59.19
2019-05-14T03:43:12.833Z,59.10
2019-05-14T03:45:49.612Z,59.12
2019-05-14T03:48:20.106Z,59.07
2019-05-14T03:50:51.443Z,58.59
2019-05-14T03:53:22.855Z,58.70
2019-05-14T03:55:54.221Z,59.15
2019-05-14T03:58:30.158Z,58.89
2019-05-14T04:01:02.105Z,59.18
2019-05-14T04:03:34.293Z,59.51
2019-05-14T04:06:05.836Z,59.57
2019-05-14T04:08:39.204Z,60.00
2019-05-14T04:11:14.717Z,59.76
2019-05-14T04:13:50.519Z,59.83
2019-05-14T04:16:23.693Z,59.41
2019-05-14T04:18:59.223Z,58.97
2019-05-14T04:21:30.654Z,58.61
2019-05-14T04:24:02.417Z,58.56
2019-05-14T04:26:53.099Z,58.42
2019-05-14T04:29:10.280Z,58.82
2019-05-14T04:31:43.582Z,58.42
2019-05-14T04:34:19.322Z,58.29
2019-05-14T04:36:50.470Z,58.37
2019-05-14T04:39:22.654Z,58.47
2019-05-14T04:41:53.949Z,58.50
2019-05-14T04:44:25.615Z,58.36
2019-05-14T04:47:20.233Z,58.22
2019-05-14T04:49:39.563Z,57.93
2019-05-14T04:52:10.417Z,57.87
2019-05-14T04:54:43.037Z,57.81
2019-05-14T04:57:14.420Z,57.72
2019-05-14T04:59:49.601Z,57.59
2019-05-14T05:02:21.166Z,57.79
2019-05-14T05:04:52.416Z,57.97
2019-05-14T05:07:23.686Z,58.34
2019-05-14T05:09:55.278Z,58.79
2019-05-14T05:12:29.415Z,58.91
2019-05-14T05:14:59.781Z,59.89
2019-05-14T05:17:42.988Z,59.59
2019-05-14T05:20:14.942Z,59.64
2019-05-14T05:22:48.379Z,59.86
2019-05-14T05:25:19.291Z,60.02
2019-05-14T05:27:50.796Z,60.22
2019-05-14T05:30:22.159Z,60.23
2019-05-14T05:32:53.607Z,60.38
2019-05-14T05:35:24.829Z,60.27
2019-05-14T05:37:58.296Z,60.47
2019-05-14T05:40:29.807Z,60.06
2019-05-14T05:43:05.157Z,60.05
2019-05-14T05:45:38.114Z,59.57
2019-05-14T05:48:09.413Z,60.40
2019-05-14T05:50:40.686Z,60.71
2019-05-14T05:53:11.911Z,60.35
2019-05-14T05:55:44.336Z,60.54
2019-05-14T05:58:16.015Z,59.75
2019-05-14T06:00:49.890Z,59.92
2019-05-14T06:03:21.619Z,59.18
2019-05-14T06:05:53.864Z,59.68
2019-05-14T06:08:28.056Z,59.54
2019-05-14T06:10:59.505Z,59.19
2019-05-14T06:13:31.268Z,59.19
2019-05-14T06:16:05.258Z,59.29
2019-05-14T06:18:39.293Z,59.23
2019-05-14T06:21:11.020Z,59.13
2019-05-14T06:23:43.081Z,58.76
2019-05-14T06:26:14.826Z,58.98
2019-05-14T06:28:48.740Z,58.86
2019-05-14T06:31:20.733Z,58.79
2019-05-14T06:33:52.989Z,58.71
2019-05-14T06:36:29.104Z,58.85
2019-05-14T06:39:00.484Z,59.39
2019-05-14T06:41:31.977Z,58.81
2019-05-14T06:44:03.382Z,58.82
2019-05-14T06:46:38.927Z,58.14
2019-05-14T06:49:10.114Z,57.95
2019-05-14T06:51:41.818Z,58.00
2019-05-14T06:54:13.170Z,58.59
2019-05-14T06:56:44.645Z,58.62
2019-05-14T06:59:18.241Z,58.31
2019-05-14T07:01:49.749Z,58.40
2019-05-14T07:04:21.326Z,58.39
2019-05-14T07:06:54.568Z,57.76
2019-05-14T07:09:28.765Z,58.11
2019-05-14T07:12:00.789Z,58.62
2019-05-14T07:14:34.740Z,58.08
2019-05-14T07:17:08.865Z,58.79
2019-05-14T07:19:39.690Z,59.01
2019-05-14T07:22:12.916Z,59.04
2019-05-14T07:24:49.372Z,59.10
2019-05-14T07:27:22.899Z,58.46
2019-05-14T07:29:54.329Z,58.56
2019-05-14T07:32:28.544Z,58.25
2019-05-14T07:34:59.711Z,59.62
2019-05-14T07:37:31.723Z,58.96
2019-05-14T07:40:13.296Z,59.72
2019-05-14T07:42:48.737Z,59.04
2019-05-14T07:45:19.905Z,58.21
2019-05-14T07:47:51.196Z,58.61
2019-05-14T07:52:54.314Z,58.71
2019-05-14T07:55:25.202Z,59.31
2019-05-14T07:57:58.741Z,58.56
2019-05-14T08:00:29.084Z,58.13
2019-05-14T08:03:01.237Z,57.58
2019-05-14T08:05:32.795Z,56.70
2019-05-14T08:08:04.351Z,57.76
2019-05-14T08:10:39.073Z,56.31
2019-05-14T08:13:09.949Z,55.41
2019-05-14T08:15:41.184Z,52.72
2019-05-14T08:18:14.367Z,50.51
2019-05-14T08:20:49.296Z,47.78
2019-05-14T08:23:20.648Z,48.90
2019-05-14T08:25:51.954Z,48.34
2019-05-14T08:30:53.822Z,48.39
2019-05-14T08:33:25.206Z,48.56
2019-05-14T08:35:58.201Z,48.45
2019-05-14T08:38:32.024Z,47.70
2019-05-14T08:41:08.196Z,47.35
2019-05-14T08:43:39.880Z,47.85
2019-05-14T08:46:12.927Z,47.79
2019-05-14T08:48:44.407Z,45.76
2019-05-14T08:51:18.595Z,46.59
2019-05-14T08:53:50.766Z,46.36
2019-05-14T08:56:22.596Z,45.85
2019-05-14T08:58:55.266Z,46.36
2019-05-14T09:01:29.178Z,45.86
2019-05-14T09:03:59.975Z,45.49
2019-05-14T09:06:31.483Z,45.96
2019-05-14T09:09:04.794Z,44.60
2019-05-14T09:11:38.738Z,44.26
2019-05-14T09:14:11.253Z,43.31
2019-05-14T09:16:47.732Z,43.07
2019-05-14T09:19:16.210Z,42.72
2019-05-14T09:21:50.356Z,42.84
2019-05-14T09:24:24.281Z,42.99
2019-05-14T09:26:59.019Z,42.60
2019-05-14T09:29:31.539Z,43.10
2019-05-14T09:32:03.223Z,43.21
2019-05-14T09:34:35.810Z,42.60
2019-05-14T09:37:08.767Z,41.56
2019-05-14T09:39:40.842Z,40.70
2019-05-14T09:42:12.260Z,42.09
2019-05-14T09:44:46.037Z,41.61
2019-05-14T09:47:19.044Z,42.42
2019-05-14T09:49:51.025Z,43.35
2019-05-14T09:52:22.300Z,43.51
2019-05-14T09:54:55.535Z,43.87
2019-05-14T09:57:28.237Z,44.01
2019-05-14T10:00:00.523Z,43.65
2019-05-14T10:02:42.929Z,44.38
2019-05-14T10:05:19.488Z,42.83
2019-05-14T10:07:51.791Z,42.67
2019-05-14T10:10:24.183Z,42.16
2019-05-14T10:12:57.254Z,42.10
2019-05-14T10:15:28.916Z,42.02
2019-05-14T10:18:00.651Z,42.73
2019-05-14T10:20:41.121Z,43.05
2019-05-14T10:23:05.017Z,41.72
2019-05-14T10:25:42.220Z,41.89
2019-05-14T10:28:11.792Z,40.70
2019-05-14T10:30:45.108Z,40.70
2019-05-14T10:33:18.138Z,40.19
2019-05-14T10:35:51.495Z,40.29
2019-05-14T10:38:23.269Z,40.17
2019-05-14T10:40:54.740Z,39.83
2019-05-14T10:43:28.892Z,39.94
2019-05-14T10:45:59.679Z,39.79
2019-05-14T10:48:31.406Z,40.13
2019-05-14T10:51:05.123Z,40.16
2019-05-14T10:53:36.843Z,41.10
2019-05-14T10:56:09.844Z,40.05
2019-05-14T10:58:41.492Z,40.36
2019-05-14T11:01:15.321Z,39.95
2019-05-14T11:03:50.412Z,39.82
2019-05-14T11:06:22.270Z,39.40
2019-05-14T11:08:53.520Z,39.09
2019-05-14T11:11:24.879Z,38.99
2019-05-14T11:13:56.503Z,39.82
2019-05-14T11:16:28.453Z,40.33
2019-05-14T11:19:00.431Z,40.19
2019-05-14T11:21:31.902Z,39.39
2019-05-14T11:24:03.317Z,39.51
2019-05-14T11:26:34.830Z,40.17
2019-05-14T11:29:06.232Z,39.21
2019-05-14T11:31:39.081Z,40.02
2019-05-14T11:34:11.024Z,39.54
2019-05-14T11:36:45.360Z,39.73
2019-05-14T11:39:18.065Z,40.22
2019-05-14T11:41:49.946Z,39.37
2019-05-14T11:44:21.448Z,40.26
2019-05-14T11:46:58.177Z,40.83
2019-05-14T11:49:26.098Z,40.69
2019-05-14T11:52:06.851Z,40.62
2019-05-14T11:54:31.038Z,40.28
2019-05-14T11:57:02.406Z,39.41
2019-05-14T11:59:34.069Z,40.26
2019-05-14T12:02:09.440Z,40.73
2019-05-14T12:04:41.146Z,40.60
2019-05-14T12:07:12.936Z,40.77
2019-05-14T12:09:44.394Z,41.17
2019-05-14T12:12:18.828Z,41.57
2019-05-14T12:14:49.320Z,41.86
2019-05-14T12:17:20.928Z,41.90
2019-05-14T12:19:52.502Z,41.35
2019-05-14T12:22:23.815Z,41.97
2019-05-14T12:24:55.715Z,42.02
2019-05-14T12:27:28.898Z,41.53
2019-05-14T12:30:00.552Z,41.05
2019-05-14T12:32:34.257Z,41.54
2019-05-14T12:35:19.801Z,41.09
2019-05-14T12:37:50.696Z,41.12
2019-05-14T12:40:21.883Z,40.48
2019-05-14T12:42:53.278Z,40.76
2019-05-14T12:45:24.539Z,40.97
2019-05-14T12:47:58.455Z,41.62
2019-05-14T12:50:29.295Z,41.08
2019-05-14T12:53:00.631Z,41.53
2019-05-14T12:55:32.987Z,41.96
2019-05-14T12:58:04.202Z,42.61
2019-05-14T13:00:39.344Z,44.29
2019-05-14T13:03:10.873Z,47.65
2019-05-14T13:05:42.763Z,49.64
2019-05-14T13:08:14.247Z,50.38
2019-05-14T13:10:45.822Z,50.94
2019-05-14T13:13:19.576Z,51.52
2019-05-14T13:16:28.342Z,51.10
2019-05-14T13:19:09.250Z,50.73
2019-05-14T13:22:08.826Z,50.64
2019-05-14T13:24:28.633Z,50.65
2019-05-14T13:26:59.100Z,50.39
2019-05-14T13:29:30.756Z,50.40
2019-05-14T13:32:02.191Z,50.72
2019-05-14T13:34:39.542Z,49.98
2019-05-14T13:37:13.041Z,48.94
2019-05-14T13:39:44.253Z,49.03
2019-05-14T13:42:15.547Z,50.10
2019-05-14T13:44:47.110Z,49.77
2019-05-14T13:47:20.377Z,49.98
2019-05-14T13:49:52.882Z,50.15
2019-05-14T13:52:25.414Z,50.77
2019-05-14T13:54:56.699Z,50.32
2019-05-14T13:57:28.662Z,51.12
2019-05-14T14:00:01.602Z,51.63
2019-05-14T14:02:42.732Z,52.23
2019-05-14T14:05:20.329Z,51.49
2019-05-14T14:07:52.575Z,52.09
2019-05-14T14:10:35.504Z,50.82
2019-05-14T14:13:06.513Z,50.94
2019-05-14T14:15:38.403Z,52.04
2019-05-14T14:18:09.896Z,52.14
2019-05-14T14:20:43.266Z,52.59
2019-05-14T14:23:21.728Z,52.17
2019-05-14T14:25:53.737Z,51.21
2019-05-14T14:28:23.690Z,51.09
2019-05-14T14:30:55.147Z,52.02
2019-05-14T14:33:28.934Z,51.89
2019-05-14T14:36:01.028Z,52.50
2019-05-14T14:38:34.224Z,53.16
2019-05-14T14:41:05.804Z,53.28
2019-05-14T14:43:42.314Z,54.03
2019-05-14T14:46:13.851Z,54.68
2019-05-14T14:48:43.178Z,55.18
2019-05-14T14:51:14.606Z,54.74
2019-05-14T14:53:59.185Z,54.85
2019-05-14T14:56:23.316Z,53.86
2019-05-14T14:58:55.320Z,53.28
2019-05-14T15:01:30.020Z,53.73
2019-05-14T15:04:00.496Z,54.58
2019-05-14T15:06:32.140Z,56.37
2019-05-14T15:09:04.618Z,57.59
2019-05-14T15:11:36.107Z,58.79
2019-05-14T15:14:08.446Z,58.70
2019-05-14T15:16:39.987Z,58.60
2019-05-14T15:19:13.653Z,58.19
2019-05-14T15:21:48.677Z,58.66
2019-05-14T15:24:20.111Z,58.82
2019-05-14T15:26:52.425Z,59.04
2019-05-14T15:29:24.031Z,59.24
2019-05-14T15:31:55.347Z,60.16
2019-05-14T15:34:29.612Z,59.64
2019-05-14T15:37:00.420Z,59.17
2019-05-14T15:39:32.550Z,60.46
2019-05-14T15:42:06.342Z,60.65
2019-05-14T15:44:48.588Z,60.04
2019-05-14T15:47:11.811Z,61.06
2019-05-14T15:49:43.814Z,61.32
2019-05-14T15:52:15.495Z,60.65
2019-05-14T15:54:50.154Z,58.70
2019-05-14T15:57:20.977Z,60.11
2019-05-14T15:59:52.335Z,60.63
2019-05-14T16:02:24.363Z,61.00
2019-05-14T16:04:59.192Z,61.07
2019-05-14T16:07:49.420Z,62.10
2019-05-14T16:10:21.934Z,64.30
2019-05-14T16:12:53.467Z,64.57
2019-05-14T16:15:24.752Z,65.59
2019-05-14T16:18:07.394Z,65.81
2019-05-14T16:20:31.011Z,66.89
2019-05-14T16:23:04.480Z,67.08
2019-05-14T16:25:37.868Z,68.06
2019-05-14T16:28:09.287Z,67.92
2019-05-14T16:30:40.872Z,69.10
2019-05-14T16:33:13.007Z,69.29
2019-05-14T16:35:44.758Z,70.81
2019-05-14T16:38:16.092Z,71.01
2019-05-14T16:40:48.948Z,71.46
2019-05-14T16:43:20.666Z,71.49
2019-05-14T16:45:54.883Z,71.39
2019-05-14T16:48:29.081Z,70.16
2019-05-14T16:51:00.927Z,71.19
2019-05-14T16:53:32.316Z,72.01
2019-05-14T16:56:03.621Z,71.68
2019-05-14T16:58:34.951Z,71.95
2019-05-14T17:01:09.696Z,73.57
2019-05-14T17:03:41.115Z,73.52
2019-05-14T17:06:12.962Z,73.62
2019-05-14T17:08:48.639Z,74.25
2019-05-14T17:11:20.922Z,73.07
2019-05-14T17:13:52.645Z,73.35
2019-05-14T17:16:24.675Z,73.38
2019-05-14T17:18:59.257Z,73.93
2019-05-14T17:21:32.031Z,73.24
2019-05-14T17:24:05.284Z,74.05
2019-05-14T17:26:38.055Z,74.33
2019-05-14T17:29:11.425Z,74.80
2019-05-14T17:31:42.990Z,76.21
2019-05-14T17:34:14.494Z,76.17
2019-05-14T17:36:48.213Z,76.29
2019-05-14T17:39:18.920Z,75.38
2019-05-14T17:41:50.625Z,75.56
2019-05-14T17:44:21.850Z,76.31
2019-05-14T17:46:53.165Z,77.04
2019-05-14T17:49:25.489Z,77.59
2019-05-14T17:51:59.746Z,77.75
2019-05-14T17:54:31.261Z,78.42
2019-05-14T17:57:02.711Z,77.97
2019-05-14T17:59:33.890Z,79.24
2019-05-14T18:02:05.120Z,79.77
2019-05-14T18:04:36.860Z,79.88
2019-05-14T18:07:08.641Z,80.57
2019-05-14T18:09:40.039Z,81.34
2019-05-14T18:12:12.518Z,81.33
2019-05-14T18:14:45.201Z,81.87
2019-05-14T18:17:18.862Z,82.24
2019-05-14T18:19:49.859Z,82.82
2019-05-14T18:22:21.253Z,82.81
2019-05-14T18:24:52.906Z,82.40
2019-05-14T18:27:25.804Z,83.21
2019-05-14T18:29:59.196Z,83.14
2019-05-14T18:32:31.655Z,83.37
2019-05-14T18:35:13.278Z,83.21
2019-05-14T18:37:45.034Z,83.83
2019-05-14T18:40:18.428Z,83.63
2019-05-14T18:42:49.723Z,84.63
2019-05-14T18:45:24.583Z,84.53
2019-05-14T18:47:58.954Z,84.19
2019-05-14T18:50:29.796Z,84.84
2019-05-14T18:53:02.476Z,85.37
2019-05-14T18:55:38.571Z,84.71
2019-05-14T18:58:10.284Z,85.07
2019-05-14T19:00:42.170Z,85.91
2019-05-14T19:03:15.977Z,84.77
2019-05-14T19:05:48.342Z,85.69
2019-05-14T19:08:20.989Z,86.40
2019-05-14T19:10:52.427Z,87.39
2019-05-14T19:13:23.746Z,86.88
2019-05-14T19:15:56.252Z,86.55
2019-05-14T19:18:28.690Z,87.27
2019-05-14T19:21:01.135Z,87.55
2019-05-14T19:23:33.794Z,87.76
2019-05-14T19:26:05.215Z,88.28
2019-05-14T19:28:38.967Z,88.24
2019-05-14T19:31:11.138Z,89.58
2019-05-14T19:33:42.612Z,89.20
2019-05-14T19:36:14.577Z,89.27
2019-05-14T19:38:48.076Z,89.14
2019-05-14T19:41:22.851Z,89.25
2019-05-14T19:43:53.857Z,89.88
2019-05-14T19:46:25.365Z,90.22
2019-05-14T19:48:59.044Z,90.32
2019-05-14T19:51:32.067Z,90.47
2019-05-14T19:54:05.109Z,90.69
2019-05-14T19:56:49.551Z,90.33
2019-05-14T19:59:10.288Z,90.35
2019-05-14T20:01:42.274Z,90.21
2019-05-14T20:04:13.868Z,90.40
2019-05-14T20:06:46.138Z,90.13
2019-05-14T20:09:18.002Z,89.88
2019-05-14T20:11:49.955Z,90.17
2019-05-14T20:14:21.779Z,90.50
2019-05-14T20:16:58.193Z,90.49
2019-05-14T20:19:29.814Z,91.08
2019-05-14T20:22:01.471Z,90.78
2019-05-14T20:24:33.029Z,91.20
2019-05-14T20:27:08.561Z,91.39
2019-05-14T20:29:38.144Z,91.28
2019-05-14T20:32:10.610Z,91.72
2019-05-14T20:34:44.178Z,91.67
2019-05-14T20:37:18.908Z,91.75
2019-05-14T20:39:53.335Z,92.06
2019-05-14T20:42:24.958Z,92.86
2019-05-14T20:44:58.872Z,92.83
2019-05-14T20:47:30.576Z,93.03
2019-05-14T20:50:14.805Z,93.07
2019-05-14T20:52:48.334Z,93.07
2019-05-14T20:55:23.389Z,93.30
2019-05-14T20:57:58.548Z,93.27
2019-05-14T21:00:29.689Z,93.27
2019-05-14T21:03:01.532Z,92.81
2019-05-14T21:05:32.959Z,93.34
2019-05-14T21:08:04.218Z,93.31
2019-05-14T21:10:38.489Z,93.36
2019-05-14T21:13:11.152Z,93.66
2019-05-14T21:15:43.071Z,93.65
2019-05-14T21:18:18.759Z,94.13
2019-05-14T21:20:51.100Z,94.10
2019-05-14T21:23:22.619Z,93.70
2019-05-14T21:25:56.944Z,94.09
2019-05-14T21:28:30.196Z,94.12
2019-05-14T21:31:10.491Z,94.17
2019-05-14T21:33:42.363Z,94.34
2019-05-14T21:36:15.015Z,94.45
2019-05-14T21:38:49.134Z,94.55
2019-05-14T21:41:20.712Z,94.86
2019-05-14T21:43:52.141Z,95.23
2019-05-14T21:46:23.422Z,95.50
2019-05-14T21:48:55.079Z,95.70
2019-05-14T21:51:28.445Z,95.62
2019-05-14T21:53:59.725Z,95.29
2019-05-14T21:56:33.048Z,95.04
2019-05-14T21:59:04.896Z,94.81
2019-05-14T22:01:38.735Z,94.37
2019-05-14T22:04:11.675Z,93.73
2019-05-14T22:06:43.916Z,92.77
2019-05-14T22:09:15.532Z,92.34
2019-05-14T22:11:48.603Z,92.92
2019-05-14T22:14:20.014Z,92.48
2019-05-14T22:16:51.934Z,92.85
2019-05-14T22:19:25.968Z,92.91
2019-05-14T22:21:58.712Z,92.72
2019-05-14T22:24:30.203Z,93.08
2019-05-14T22:27:01.508Z,92.75
2019-05-14T22:29:33.180Z,93.03
2019-05-14T22:32:04.663Z,92.82
2019-05-14T22:34:38.519Z,92.76
2019-05-14T22:37:11.894Z,92.98
2019-05-14T22:39:43.172Z,93.02
2019-05-14T22:42:18.910Z,93.12
2019-05-14T22:44:50.955Z,93.20
2019-05-14T22:47:22.990Z,93.48
2019-05-14T22:49:55.031Z,93.62
2019-05-14T22:52:28.426Z,93.32
2019-05-14T22:54:59.745Z,92.71
2019-05-14T22:57:42.194Z,92.47
2019-05-14T23:00:20.613Z,92.63
2019-05-14T23:02:49.847Z,92.02
2019-05-14T23:05:21.584Z,92.13
2019-05-14T23:07:52.906Z,92.58
2019-05-14T23:10:24.327Z,92.65
2019-05-14T23:12:55.810Z,92.55
2019-05-14T23:15:28.960Z,93.52
2019-05-14T23:18:01.277Z,94.05
2019-05-14T23:20:34.649Z,93.44
2019-05-14T23:23:09.215Z,93.67
2019-05-14T23:25:41.623Z,94.35
2019-05-14T23:28:13.401Z,93.22
2019-05-14T23:30:44.744Z,93.56
2019-05-14T23:33:18.896Z,91.87
2019-05-14T23:35:49.374Z,92.49
2019-05-14T23:38:20.744Z,93.16
2019-05-14T23:40:52.211Z,92.46
2019-05-14T23:43:24.126Z,93.23
2019-05-14T23:45:55.598Z,93.14
2019-05-14T23:48:26.880Z,92.25
2019-05-14T23:50:58.546Z,92.57
2019-05-14T23:53:31.147Z,91.38
2019-05-14T23:56:02.528Z,91.64
2019-05-14T23:58:34.400Z,92.18
